Midway, Missouri
Current Conditions -  °F | °C
As of 11:54 PM on Friday 28 Nov 2014 (Local Time) from KCOU Reporting Station
Clear Clear  
Wind Chill: 42°   Ceiling: Unl
Heat Index: 47°   Visibility: 10mi
Dew Point: 36°   Wind: 12mph
Humidity: 66%   Direction: 180°S
Pressure: 29.8"   Gusts: NA
Location:  39.0235°N, 92.2896°W
Report Text: KCOU 290554Z AUTO 18010KT 10SM CLR 08/02 A2980 RMK AO2 SLP090 T00830022 10106 20083 401501028 58014
Loading
Personal Weather Stations






























Interactive Weather Map New forecast layout! Learn more

10-Day Weather Forecast

Advertisements
Track Severe Weather on mobile